Terminal Aerodrome Forecast
Issued by NWS

Home | Current Version | Previous Version | Text Only | Print | Product List | Glossary On
Versions: 1 2 3 4 5 6 7 8 9 10 11 12 13 14 15
367
FTUS45 KTFX 301120
TAFGTF
TAF
KGTF 301120Z 3012/0112 21008KT P6SM SCT110
     FM010000 13008KT P6SM SCT080 BKN130
     FM010800 19010KT P6SM SKC=

USA.gov is the U.S. government's official web portal to all federal, state and local government web resources and services.